Time;durP1;ratioP1;P1;durP2;ratioP2;P2;SDS_P1;SDS_P2;PMS_P1;PMS_P2;Temp;Humidity;BMP_temperature;BMP_pressure;BME280_temperature;BME280_humidity;BME280_pressure;Samples;Min_cycle;Max_cycle;Signal;HPM_P1;HPM_P2
2022/05/09 00:02:40;;;;;;;5.40;3.50;;;;;;;14.16;100.00;101623.16;4901261;29;20044;-76
2022/05/09 00:05:27;;;;;;;7.90;3.53;;;;;;;14.46;100.00;101626.16;4901773;29;20032;-75
2022/05/09 00:08:13;;;;;;;7.03;3.78;;;;;;;14.02;100.00;101623.41;4901465;29;20382;-74
2022/05/09 00:10:59;;;;;;;7.13;3.95;;;;;;;14.18;100.00;101626.63;4902033;29;20470;-75
2022/05/09 00:13:44;;;;;;;6.68;3.97;;;;;;;14.00;100.00;101624.34;4901438;29;20465;-76
2022/05/09 00:16:33;;;;;;;7.85;4.20;;;;;;;13.54;100.00;101621.56;4901478;29;20044;-75
2022/05/09 00:19:20;;;;;;;6.53;3.80;;;;;;;14.05;100.00;101623.38;4901685;29;20036;-76
2022/05/09 00:22:06;;;;;;;7.35;3.58;;;;;;;13.99;100.00;101626.09;4902526;29;20474;-75
2022/05/09 00:24:52;;;;;;;7.70;3.72;;;;;;;13.96;100.00;101626.16;4901573;29;20043;-76
2022/05/09 00:27:38;;;;;;;7.00;3.40;;;;;;;13.97;100.00;101627.00;4900041;29;20044;-75
2022/05/09 00:30:24;;;;;;;8.10;3.45;;;;;;;13.89;100.00;101628.91;4901645;29;20362;-76
2022/05/09 00:33:09;;;;;;;6.40;3.50;;;;;;;13.38;100.00;101629.72;4901076;29;20036;-75
2022/05/09 00:35:55;;;;;;;6.18;3.72;;;;;;;13.80;100.00;101635.22;4901049;29;20052;-76
2022/05/09 00:38:41;;;;;;;7.18;3.65;;;;;;;13.53;100.00;101626.84;4926926;29;20123;-76
2022/05/09 00:41:40;;;;;;;7.63;3.45;;;;;;;13.54;100.00;101629.47;4901457;29;20140;-75
2022/05/09 00:44:27;;;;;;;6.80;3.90;;;;;;;13.94;100.00;101633.22;4900696;29;20064;-77
2022/05/09 00:47:13;;;;;;;6.90;3.88;;;;;;;13.79;100.00;101627.34;4902140;29;20446;-75
2022/05/09 00:50:01;;;;;;;7.00;4.40;;;;;;;13.76;100.00;101628.25;4913888;29;20119;-74
2022/05/09 00:53:01;;;;;;;9.38;4.68;;;;;;;13.78;100.00;101626.44;4901457;29;20347;-75
2022/05/09 00:55:55;;;;;;;8.02;3.75;;;;;;;13.70;100.00;101628.34;4913649;29;20365;-75
2022/05/09 00:58:47;;;;;;;7.90;3.35;;;;;;;14.04;100.00;101637.44;4926852;29;20028;-76
2022/05/09 01:01:33;;;;;;;5.90;3.78;;;;;;;14.05;100.00;101631.28;4900629;29;20033;-76
2022/05/09 01:04:22;;;;;;;8.50;4.03;;;;;;;13.87;100.00;101630.72;4900225;29;20120;-75
2022/05/09 01:07:08;;;;;;;7.22;3.58;;;;;;;13.74;100.00;101627.41;4901225;29;20024;-75
2022/05/09 01:09:54;;;;;;;8.75;3.97;;;;;;;13.70;100.00;101625.69;4899787;29;20480;-75
2022/05/09 01:12:42;;;;;;;6.95;3.70;;;;;;;13.32;100.00;101620.16;4900381;29;20125;-75
2022/05/09 01:15:28;;;;;;;9.00;4.07;;;;;;;13.32;100.00;101620.16;4913315;29;20494;-75
2022/05/09 01:18:16;;;;;;;9.18;3.70;;;;;;;13.47;100.00;101611.16;4900630;29;20108;-75
2022/05/09 01:21:27;;;;;;;6.90;3.40;;;;;;;13.74;100.00;101626.50;4900481;29;20442;-75
2022/05/09 01:24:18;;;;;;;4.82;3.40;;;;;;;13.74;100.00;101614.22;4913407;29;20056;-75
2022/05/09 01:27:04;;;;;;;6.13;3.40;;;;;;;13.54;100.00;101615.41;4925823;29;20032;-75
2022/05/09 01:30:11;;;;;;;6.80;3.50;;;;;;;13.56;100.00;101617.16;4900662;29;20450;-75
2022/05/09 01:33:09;;;;;;;7.70;3.42;;;;;;;13.47;100.00;101619.91;4899473;29;20064;-75
2022/05/09 01:35:57;;;;;;;8.52;3.85;;;;;;;13.32;100.00;101624.53;4900322;29;20518;-74
2022/05/09 01:38:54;;;;;;;5.68;4.05;;;;;;;13.65;100.00;101627.53;4899783;29;20032;-74
2022/05/09 01:41:45;;;;;;;4.90;3.10;;;;;;;13.47;100.00;101626.97;4913863;29;20039;-75
2022/05/09 01:44:31;;;;;;;5.38;3.65;;;;;;;13.51;100.00;101632.13;4899948;29;20047;-76
2022/05/09 01:50:23;;;;;;;5.95;3.50;;;;;;;13.41;100.00;101638.44;4899563;29;20171;-75
2022/05/09 01:53:09;;;;;;;9.48;3.63;;;;;;;13.20;100.00;101638.75;4898741;29;20032;-76
2022/05/09 01:55:54;;;;;;;5.70;3.63;;;;;;;13.33;100.00;101640.31;4912807;29;20039;-75
2022/05/09 01:58:40;;;;;;;6.65;3.78;;;;;;;13.17;100.00;101646.69;4899346;29;20446;-76
2022/05/09 02:01:36;;;;;;;10.05;4.10;;;;;;;12.92;100.00;101655.75;4900575;29;20024;-75
2022/05/09 02:04:23;;;;;;;8.60;3.97;;;;;;;13.03;100.00;101655.63;4899579;29;20035;-75
2022/05/09 02:07:14;;;;;;;9.65;4.47;;;;;;;13.25;100.00;101651.81;4899634;29;20453;-76
2022/05/09 02:09:59;;;;;;;10.05;3.80;;;;;;;13.13;100.00;101655.50;4899770;29;20036;-76
2022/05/09 02:12:45;;;;;;;6.43;3.80;;;;;;;13.16;100.00;101654.59;4899648;29;20036;-76
2022/05/09 02:15:31;;;;;;;7.22;3.72;;;;;;;12.69;100.00;101664.75;4899256;29;20041;-76
2022/05/09 02:18:17;;;;;;;4.80;3.55;;;;;;;12.65;100.00;101666.56;4900273;29;20033;-75
2022/05/09 02:21:03;;;;;;;9.02;3.95;;;;;;;12.68;100.00;101668.28;4897510;29;20418;-75
2022/05/09 02:23:50;;;;;;;8.98;4.03;;;;;;;12.83;100.00;101658.47;4899143;29;20039;-75
2022/05/09 02:26:37;;;;;;;7.45;3.97;;;;;;;13.14;100.00;101665.13;4899134;29;20153;-75
2022/05/09 02:29:25;;;;;;;6.70;3.80;;;;;;;13.08;100.00;101651.19;4899048;29;20092;-75
2022/05/09 02:32:13;;;;;;;9.23;4.32;;;;;;;12.63;100.00;101667.47;4900169;29;20056;-75
2022/05/09 02:34:59;;;;;;;6.40;4.18;;;;;;;11.94;100.00;101662.88;4899284;29;20092;-75
2022/05/09 02:37:45;;;;;;;8.68;4.63;;;;;;;11.97;100.00;101668.13;4898927;29;20037;-75
2022/05/09 02:40:33;;;;;;;9.40;5.10;;;;;;;11.98;100.00;101665.44;4898681;29;20063;-74
2022/05/09 02:43:18;;;;;;;12.05;4.95;;;;;;;12.07;100.00;101669.78;4898675;29;20107;-75
2022/05/09 02:46:04;;;;;;;9.43;4.50;;;;;;;12.21;100.00;101667.88;4898797;29;20036;-75
2022/05/09 02:48:50;;;;;;;11.52;4.57;;;;;;;12.17;100.00;101667.03;4912312;29;20037;-75
2022/05/09 02:51:36;;;;;;;6.65;4.25;;;;;;;11.95;100.00;101665.50;4924207;29;20028;-75
2022/05/09 02:54:22;;;;;;;7.90;4.53;;;;;;;11.98;100.00;101659.34;4899126;29;20453;-75
2022/05/09 02:57:07;;;;;;;6.95;4.10;;;;;;;11.53;100.00;101657.88;4898726;29;20037;-75
2022/05/09 02:59:53;;;;;;;5.78;3.80;;;;;;;11.52;100.00;101657.88;4899092;29;20039;-75
2022/05/09 03:02:39;;;;;;;7.88;4.05;;;;;;;11.57;100.00;101664.84;4899902;29;20115;-75
2022/05/09 03:05:25;;;;;;;10.35;4.15;;;;;;;11.63;100.00;101667.50;4899624;29;20378;-75
2022/05/09 03:08:13;;;;;;;8.07;4.00;;;;;;;11.47;100.00;101668.44;4898048;29;20096;-74
2022/05/09 03:10:59;;;;;;;11.70;4.40;;;;;;;11.59;100.00;101672.72;4899105;29;20437;-75
2022/05/09 03:13:45;;;;;;;8.63;4.40;;;;;;;11.33;100.00;101672.03;4897914;29;20060;-75
2022/05/09 03:16:31;;;;;;;12.00;5.00;;;;;;;11.64;100.00;101673.59;4898818;29;20090;-75
2022/05/09 03:19:17;;;;;;;10.27;4.40;;;;;;;11.48;100.00;101677.16;4899242;29;20025;-75
2022/05/09 03:22:03;;;;;;;6.45;3.97;;;;;;;11.48;100.00;101678.03;4898277;29;20099;-75
2022/05/09 03:24:49;;;;;;;11.18;3.97;;;;;;;11.82;100.00;101687.47;4899113;29;20039;-74
2022/05/09 03:27:35;;;;;;;8.18;4.47;;;;;;;12.04;100.00;101685.53;4898123;29;20056;-76
2022/05/09 03:30:21;;;;;;;7.63;4.18;;;;;;;11.86;100.00;101689.19;4899395;29;20024;-75
2022/05/09 03:33:07;;;;;;;7.78;4.47;;;;;;;11.99;100.00;101684.72;4900037;29;20083;-75
2022/05/09 03:35:54;;;;;;;7.40;4.10;;;;;;;11.59;100.00;101686.72;4902267;29;20434;-76
2022/05/09 03:38:40;;;;;;;7.50;4.20;;;;;;;11.80;100.00;101688.34;4902365;29;20040;-76
2022/05/09 03:41:25;;;;;;;13.13;5.28;;;;;;;12.08;100.00;101692.50;4902421;29;20367;-76
2022/05/09 03:44:11;;;;;;;10.40;4.75;;;;;;;11.99;100.00;101687.34;4902562;29;20025;-76
2022/05/09 03:46:57;;;;;;;9.32;4.43;;;;;;;12.24;100.00;101689.75;4901011;29;20094;-76
2022/05/09 03:49:43;;;;;;;6.15;4.50;;;;;;;12.18;100.00;101692.44;4902175;29;20025;-75
2022/05/09 03:52:29;;;;;;;8.05;3.95;;;;;;;12.26;100.00;101697.63;4901895;29;20385;-76
2022/05/09 03:55:15;;;;;;;7.15;4.57;;;;;;;12.24;100.00;101695.00;4901298;29;20024;-75
2022/05/09 03:58:02;;;;;;;8.18;4.32;;;;;;;12.69;100.00;101702.47;4901740;29;20036;-75
2022/05/09 04:00:47;;;;;;;8.88;4.05;;;;;;;12.62;100.00;101707.81;4902129;29;20070;-75
2022/05/09 04:03:33;;;;;;;6.93;3.88;;;;;;;12.57;100.00;101706.94;4901642;29;20115;-75
2022/05/09 04:06:19;;;;;;;10.55;4.20;;;;;;;12.53;100.00;101708.75;4902073;29;20032;-75
2022/05/09 04:09:05;;;;;;;7.32;4.43;;;;;;;12.88;100.00;101709.28;4901468;29;20068;-74
2022/05/09 04:11:51;;;;;;;7.75;4.30;;;;;;;12.62;100.00;101710.44;4902101;29;20071;-75
2022/05/09 04:17:41;;;;;;;9.70;4.60;;;;;;;12.70;100.00;101717.34;4901309;29;20040;-75
2022/05/09 04:20:29;;;;;;;7.68;4.50;;;;;;;13.00;100.00;101716.19;4901440;29;20028;-76
2022/05/09 04:23:16;;;;;;;12.57;4.40;;;;;;;13.11;100.00;101709.03;4901409;29;20059;-76
2022/05/09 04:26:02;;;;;;;7.38;4.13;;;;;;;12.88;100.00;101714.53;4913627;29;20108;-75
2022/05/09 04:28:47;;;;;;;7.95;3.92;;;;;;;12.94;100.00;101711.81;4901544;29;20513;-76
2022/05/09 04:31:36;;;;;;;10.93;4.25;;;;;;;12.75;100.00;101715.56;4901343;29;20161;-75
2022/05/09 04:34:22;;;;;;;11.38;3.78;;;;;;;13.18;100.00;101721.25;4901090;29;20032;-75
2022/05/09 04:37:07;;;;;;;11.23;4.20;;;;;;;13.21;100.00;101722.06;4900838;29;20044;-76
2022/05/09 04:39:55;;;;;;;9.15;4.45;;;;;;;13.25;100.00;101723.75;4900773;29;20068;-75
2022/05/09 04:42:40;;;;;;;10.57;5.07;;;;;;;13.20;100.00;101722.97;4900803;29;20111;-75
2022/05/09 04:45:29;;;;;;;9.75;4.60;;;;;;;13.19;100.00;101729.09;4900311;29;20020;-76
2022/05/09 04:48:22;;;;;;;8.43;4.20;;;;;;;13.30;100.00;101728.97;4901600;29;20370;-75
2022/05/09 04:51:08;;;;;;;7.82;4.00;;;;;;;13.28;100.00;101733.38;4901214;29;20033;-76
2022/05/09 04:53:54;;;;;;;8.75;4.13;;;;;;;13.37;100.00;101735.88;4901318;29;20029;-76
2022/05/09 04:56:40;;;;;;;8.07;4.45;;;;;;;13.50;100.00;101735.72;4901069;29;20029;-75
2022/05/09 04:59:28;;;;;;;8.30;4.40;;;;;;;13.65;100.00;101743.41;4902112;29;20074;-76
2022/05/09 05:02:15;;;;;;;6.55;3.70;;;;;;;13.64;100.00;101739.06;4900971;29;20389;-75
2022/05/09 05:05:02;;;;;;;10.48;4.50;;;;;;;13.74;100.00;101727.47;4901477;29;20028;-75
2022/05/09 05:07:48;;;;;;;11.15;4.75;;;;;;;14.01;100.00;101737.63;4900673;29;20458;-74
2022/05/09 05:10:34;;;;;;;9.80;4.30;;;;;;;13.78;100.00;101746.72;4901185;29;20068;-75
2022/05/09 05:13:20;;;;;;;12.48;5.03;;;;;;;13.87;100.00;101736.09;4901083;29;20049;-76
2022/05/09 05:16:06;;;;;;;7.55;4.75;;;;;;;14.06;100.00;101748.94;4900674;29;20422;-76
2022/05/09 05:18:52;;;;;;;12.23;4.78;;;;;;;13.98;100.00;101742.03;4900857;29;20410;-76
2022/05/09 05:21:38;;;;;;;8.68;4.30;;;;;;;14.05;100.00;101743.69;4900240;29;20458;-76
2022/05/09 05:24:24;;;;;;;11.48;4.53;;;;;;;14.17;100.00;101746.16;4900101;29;20104;-75
2022/05/09 05:27:14;;;;;;;15.57;4.65;;;;;;;14.37;100.00;101749.38;4900372;29;20033;-73
2022/05/09 05:30:00;;;;;;;9.70;4.70;;;;;;;14.33;100.00;101748.56;4900481;29;20025;-75
2022/05/09 05:32:47;;;;;;;9.13;5.20;;;;;;;14.33;100.00;101756.47;4900462;29;20036;-75
2022/05/09 05:35:33;;;;;;;21.10;13.10;;;;;;;14.45;100.00;101751.00;4900929;29;20024;-75
2022/05/09 05:38:19;;;;;;;50.55;31.48;;;;;;;14.55;100.00;101757.00;4900893;29;20032;-74
2022/05/09 05:41:05;;;;;;;9.63;4.68;;;;;;;14.50;100.00;101756.16;4913524;29;20099;-75
2022/05/09 05:43:50;;;;;;;7.50;4.85;;;;;;;14.73;100.00;101748.72;4899596;29;20032;-74
2022/05/09 05:46:36;;;;;;;11.75;5.72;;;;;;;14.59;100.00;101746.34;4899884;29;20040;-74
2022/05/09 05:49:22;;;;;;;11.10;6.07;;;;;;;14.70;100.00;101754.94;4901089;29;20036;-73
2022/05/09 05:52:09;;;;;;;14.65;6.18;;;;;;;15.29;100.00;101760.84;4899292;29;20032;-75
2022/05/09 05:54:54;;;;;;;10.70;5.55;;;;;;;15.67;100.00;101764.44;4901398;29;20028;-73
2022/05/09 05:57:42;;;;;;;12.02;5.60;;;;;;;15.88;100.00;101761.34;4898843;29;20107;-74
2022/05/09 06:00:28;;;;;;;12.95;5.53;;;;;;;15.97;100.00;101754.97;4899828;29;20032;-75
2022/05/09 06:03:15;;;;;;;13.38;5.10;;;;;;;16.14;100.00;101768.66;4899346;29;20116;-74
2022/05/09 06:06:01;;;;;;;9.68;5.00;;;;;;;15.95;100.00;101773.50;4900813;29;20465;-73
2022/05/09 06:08:48;;;;;;;7.63;5.00;;;;;;;16.23;100.00;101774.63;4899426;29;20043;-74
2022/05/09 06:11:33;;;;;;;10.90;4.70;;;;;;;16.72;100.00;101764.56;4925459;29;20047;-75
2022/05/09 06:14:19;;;;;;;17.25;8.60;;;;;;;16.65;100.00;101768.31;4899126;29;20068;-73
2022/05/09 06:17:06;;;;;;;10.88;4.47;;;;;;;16.40;100.00;101769.78;4899683;29;20090;-74
2022/05/09 06:19:52;;;;;;;13.02;4.75;;;;;;;16.81;100.00;101772.31;4924899;29;20052;-74
2022/05/09 06:22:39;;;;;;;12.77;4.32;;;;;;;16.97;100.00;101772.75;4898680;29;20040;-75
2022/05/09 06:25:27;;;;;;;9.73;5.25;;;;;;;16.74;98.24;101768.06;4898856;29;20111;-75
2022/05/09 06:28:17;;;;;;;12.30;5.63;;;;;;;17.16;100.00;101781.94;4899177;29;20036;-74
2022/05/09 06:31:06;;;;;;;14.00;5.93;;;;;;;17.13;100.00;101774.06;4899254;29;20465;-75
2022/05/09 06:33:52;;;;;;;13.23;5.30;;;;;;;17.01;100.00;101774.41;4898474;29;20062;-74
2022/05/09 06:36:39;;;;;;;13.18;6.53;;;;;;;17.42;100.00;101777.69;4899805;29;20111;-74
2022/05/09 06:39:27;;;;;;;16.50;6.70;;;;;;;17.71;100.00;101768.84;4899990;29;20124;-75
2022/05/09 06:42:13;;;;;;;10.70;5.55;;;;;;;17.20;100.00;101783.59;4898889;29;20028;-74
2022/05/09 06:45:02;;;;;;;18.02;6.85;;;;;;;17.65;98.83;101782.31;4898818;29;20123;-76
2022/05/09 06:47:50;;;;;;;12.90;5.30;;;;;;;17.19;98.80;101788.00;4899905;29;20350;-72
2022/05/09 06:50:38;;;;;;;13.75;6.10;;;;;;;17.73;98.61;101786.44;4911848;29;20071;-75
2022/05/09 06:53:24;;;;;;;15.23;5.30;;;;;;;18.10;93.88;101780.91;4898947;29;20040;-75
2022/05/09 06:56:10;;;;;;;9.98;4.18;;;;;;;18.02;96.36;101785.59;4910593;29;20061;-74
2022/05/09 06:58:56;;;;;;;11.98;4.22;;;;;;;18.03;95.16;101782.88;4898793;29;20414;-74
2022/05/09 07:01:43;;;;;;;10.63;4.20;;;;;;;18.21;93.77;101787.59;4898443;29;20428;-75
2022/05/09 07:04:28;;;;;;;13.63;4.55;;;;;;;18.31;93.90;101791.72;4898360;29;20036;-75
2022/05/09 07:07:15;;;;;;;8.25;3.92;;;;;;;18.11;93.89;101783.50;4898852;29;20024;-75
2022/05/09 07:10:00;;;;;;;6.50;3.67;;;;;;;18.30;92.87;101789.97;4898578;29;20488;-74
2022/05/09 07:12:49;;;;;;;9.73;6.10;;;;;;;18.51;92.02;101785.78;4898725;29;20032;-74
2022/05/09 07:15:35;;;;;;;11.70;3.65;;;;;;;18.26;91.93;101788.34;4899322;29;20052;-75
2022/05/09 07:18:25;;;;;;;9.70;4.03;;;;;;;18.47;89.87;101787.69;4911308;29;20032;-74
2022/05/09 07:21:12;;;;;;;6.03;3.20;;;;;;;18.20;91.88;101788.53;4898998;29;20043;-74
2022/05/09 07:23:59;;;;;;;8.15;3.22;;;;;;;18.70;89.65;101782.44;4911924;29;20516;-75
2022/05/09 07:26:45;;;;;;;8.02;2.90;;;;;;;18.67;86.15;101781.69;4898878;29;20065;-75
2022/05/09 07:29:31;;;;;;;9.82;3.38;;;;;;;18.83;83.65;101788.22;4911151;29;20076;-74
2022/05/09 07:32:17;;;;;;;13.55;9.38;;;;;;;19.08;82.17;101792.63;4897541;29;20509;-74
2022/05/09 07:35:05;;;;;;;11.43;6.25;;;;;;;18.91;79.66;101791.47;4899822;29;20064;-75
2022/05/09 07:37:51;;;;;;;5.68;3.00;;;;;;;19.92;74.79;101793.94;4896963;29;20040;-75
2022/05/09 07:40:40;;;;;;;8.65;2.67;;;;;;;19.93;71.76;101786.81;4897024;29;20351;-75
2022/05/09 07:43:28;;;;;;;5.35;2.70;;;;;;;19.66;69.48;101788.75;4899129;29;20103;-75
2022/05/09 07:46:14;;;;;;;4.70;2.40;;;;;;;20.03;65.81;101797.03;4898154;29;20031;-75
2022/05/09 07:49:00;;;;;;;4.22;2.75;;;;;;;20.13;65.80;101787.78;4899193;29;20060;-76
2022/05/09 07:51:46;;;;;;;4.88;2.85;;;;;;;20.39;65.17;101790.28;4897885;29;20032;-75
2022/05/09 07:54:32;;;;;;;5.32;2.17;;;;;;;20.47;62.10;101792.63;4897781;29;20039;-74
2022/05/09 07:57:18;;;;;;;7.82;2.38;;;;;;;21.06;60.24;101796.34;4897958;29;20458;-74
2022/05/09 08:00:05;;;;;;;4.47;2.42;;;;;;;20.89;59.41;101796.16;4897193;29;20028;-75
2022/05/09 08:02:51;;;;;;;6.95;2.17;;;;;;;21.00;59.21;101791.25;4898341;29;20347;-75
2022/05/09 08:05:37;;;;;;;4.28;2.42;;;;;;;21.12;58.73;101796.06;4898413;29;20088;-75
2022/05/09 08:08:23;;;;;;;5.40;2.35;;;;;;;21.51;55.19;101795.16;4898031;29;20028;-76
2022/05/09 08:11:11;;;;;;;5.10;2.83;;;;;;;21.61;56.23;101791.13;4897466;29;20123;-75
2022/05/09 08:13:57;;;;;;;3.25;2.08;;;;;;;21.84;55.22;101787.44;4910371;29;20048;-75
2022/05/09 08:16:43;;;;;;;7.13;2.60;;;;;;;20.87;53.37;101796.22;4897516;29;20025;-75
2022/05/09 08:19:31;;;;;;;6.88;2.60;;;;;;;22.24;52.65;101788.13;4911726;29;20024;-75
2022/05/09 08:22:19;;;;;;;14.75;3.63;;;;;;;22.68;51.36;101794.84;4901854;29;20040;-74
2022/05/09 08:25:05;;;;;;;12.32;4.10;;;;;;;22.70;52.20;101800.97;4901397;29;20322;-75
2022/05/09 08:27:51;;;;;;;9.98;5.05;;;;;;;22.89;51.12;101796.44;4926435;29;20033;-75
2022/05/09 08:30:38;;;;;;;4.80;2.63;;;;;;;23.27;48.24;101807.84;4913322;29;20039;-76
2022/05/09 08:33:28;;;;;;;6.05;2.45;;;;;;;22.84;47.35;101805.63;4901160;29;20068;-75
2022/05/09 08:36:45;;;;;;;5.07;2.50;;;;;;;22.35;46.17;101801.81;4927240;29;20020;-75
2022/05/09 08:39:20;;;;;;;6.07;2.72;;;;;;;23.02;45.19;101800.19;4901917;29;20457;-75
2022/05/09 08:42:08;;;;;;;10.57;4.72;;;;;;;23.48;42.87;101797.81;4902099;29;20032;-75
2022/05/09 08:45:00;;;;;;;5.80;2.67;;;;;;;23.56;41.49;101796.44;4901288;29;20072;-75
2022/05/09 08:48:07;;;;;;;5.80;2.38;;;;;;;23.62;41.82;101808.63;4901714;29;20123;-77
2022/05/09 08:51:03;;;;;;;4.22;2.80;;;;;;;23.06;42.42;101804.44;4927073;29;20032;-75
2022/05/09 08:53:59;;;;;;;7.93;3.75;;;;;;;22.92;43.24;101804.31;4901577;29;20047;-71
2022/05/09 08:56:46;;;;;;;7.97;3.80;;;;;;;23.34;42.55;101802.09;4900873;29;20028;-76
2022/05/09 08:59:38;;;;;;;8.65;4.05;;;;;;;23.41;41.42;101797.28;4901391;29;20048;-75
2022/05/09 09:03:09;;;;;;;5.50;3.63;;;;;;;23.88;39.83;101794.69;4900237;29;20028;-77
2022/05/09 09:06:05;;;;;;;4.30;2.90;;;;;;;23.60;36.86;101794.47;4896817;29;20100;-76
2022/05/09 09:08:53;;;;;;;6.22;3.00;;;;;;;24.04;37.17;101795.59;4904692;29;20048;-76
2022/05/09 09:11:57;;;;;;;8.30;2.97;;;;;;;24.23;37.10;101796.28;4901630;29;20047;-76
2022/05/09 09:14:53;;;;;;;5.47;2.92;;;;;;;23.95;37.57;101794.28;4900678;29;20060;-76
2022/05/09 09:18:04;;;;;;;3.05;2.38;;;;;;;23.99;38.23;101795.84;4900450;29;20457;-76
2022/05/09 09:21:18;;;;;;;5.13;2.63;;;;;;;23.38;38.84;101796.56;4915185;29;20373;-76
2022/05/09 09:24:22;;;;;;;5.55;2.70;;;;;;;24.16;38.54;101802.94;4902936;29;20064;-75
2022/05/09 09:27:17;;;;;;;5.72;2.50;;;;;;;24.45;38.36;101794.97;4903720;29;20116;-75
2022/05/09 09:30:10;;;;;;;4.13;1.90;;;;;;;23.96;38.05;101789.81;4900618;29;20040;-77
2022/05/09 09:33:09;;;;;;;6.47;2.10;;;;;;;24.56;35.96;101802.38;4901102;29;20095;-76
2022/05/09 09:36:05;;;;;;;2.65;2.05;;;;;;;24.70;36.88;101797.09;4900837;29;20528;-77
2022/05/09 09:38:57;;;;;;;3.33;2.05;;;;;;;24.30;36.32;101797.69;4900119;29;20050;-75
2022/05/09 09:41:43;;;;;;;4.65;2.40;;;;;;;23.51;36.19;101803.00;4901169;29;20107;-76
2022/05/09 09:44:34;;;;;;;3.90;2.55;;;;;;;23.91;36.60;101797.19;4899173;29;20033;-76
2022/05/09 09:47:20;;;;;;;4.22;2.20;;;;;;;23.87;36.39;101792.97;4900830;29;20111;-76
2022/05/09 09:50:25;;;;;;;5.25;2.10;;;;;;;22.21;37.14;101798.06;4900489;29;20534;-77
2022/05/09 09:53:27;;;;;;;6.45;2.85;;;;;;;22.28;38.10;101799.53;4900935;29;20462;-76
2022/05/09 09:56:22;;;;;;;4.03;2.55;;;;;;;23.01;36.80;101806.50;4926160;29;20111;-76
2022/05/09 09:59:11;;;;;;;6.25;3.70;;;;;;;23.29;35.86;101787.22;4905944;29;20456;-76
2022/05/09 10:02:21;;;;;;;6.22;2.40;;;;;;;23.03;34.79;101793.03;4901903;29;20033;-77
2022/05/09 10:05:15;;;;;;;3.63;1.70;;;;;;;22.61;35.07;101788.06;4925685;29;20029;-79
2022/05/09 10:08:31;;;;;;;5.05;2.40;;;;;;;23.63;34.02;101791.63;4913337;29;20115;-78
2022/05/09 10:11:22;;;;;;;3.55;1.50;;;;;;;23.76;31.32;101792.69;4899589;29;20029;-77
2022/05/09 10:14:09;;;;;;;2.65;1.83;;;;;;;23.23;31.50;101790.22;4898482;29;20056;-77
2022/05/09 10:17:17;;;;;;;7.70;3.50;;;;;;;23.85;31.00;101784.13;4913673;29;20028;-77
2022/05/09 10:20:27;;;;;;;5.75;1.83;;;;;;;23.55;30.80;101791.19;4899336;29;20036;-76
2022/05/09 10:26:27;;;;;;;2.72;1.77;;;;;;;23.54;30.42;101781.44;4899313;29;20108;-76
2022/05/09 10:29:17;;;;;;;4.88;2.30;;;;;;;23.65;30.65;101781.69;4912569;29;20029;-76
2022/05/09 10:32:09;;;;;;;2.83;1.73;;;;;;;23.39;28.80;101780.44;4925086;29;20028;-76
2022/05/09 10:35:12;;;;;;;4.45;1.77;;;;;;;23.63;27.51;101780.94;4899572;29;20060;-76
2022/05/09 10:38:13;;;;;;;2.00;1.50;;;;;;;23.52;26.28;101783.31;4900167;29;20036;-76
2022/05/09 10:41:09;;;;;;;2.80;2.22;;;;;;;23.35;25.83;101777.06;4899297;29;20079;-76
2022/05/09 10:44:01;;;;;;;3.47;2.28;;;;;;;23.52;25.55;101773.50;4899454;29;20033;-76
2022/05/09 10:46:51;;;;;;;4.10;1.98;;;;;;;23.98;26.60;101774.53;4899384;29;20031;-75
2022/05/09 10:49:48;;;;;;;3.25;1.90;;;;;;;24.14;26.52;101773.56;4899050;29;20068;-76
2022/05/09 10:52:41;;;;;;;3.90;1.70;;;;;;;24.64;25.56;101774.22;4898658;29;20025;-76
2022/05/09 10:55:43;;;;;;;3.13;1.60;;;;;;;24.03;24.97;101773.28;4899170;29;20032;-76
2022/05/09 10:58:37;;;;;;;1.85;1.30;;;;;;;24.31;25.37;101769.94;4898852;29;20032;-77
2022/05/09 11:01:33;;;;;;;5.53;1.67;;;;;;;24.17;24.71;101762.69;4899555;29;20530;-77
2022/05/09 11:04:19;;;;;;;2.25;1.60;;;;;;;25.06;25.16;101763.59;4898697;29;20048;-76
2022/05/09 11:07:21;;;;;;;4.25;2.10;;;;;;;24.53;26.61;101759.69;4898355;29;20107;-76
2022/05/09 11:10:23;;;;;;;5.00;2.95;;;;;;;24.60;25.33;101766.41;4898812;29;20035;-76
2022/05/09 11:13:34;;;;;;;1.98;1.60;;;;;;;24.53;25.59;101762.34;4900015;29;20044;-77
2022/05/09 11:16:35;;;;;;;2.10;1.48;;;;;;;24.60;24.65;101761.06;4899245;29;20027;-77
2022/05/09 11:19:39;;;;;;;6.07;1.20;;;;;;;24.58;25.14;101753.09;4898729;29;20052;-77
2022/05/09 11:22:31;;;;;;;3.22;1.45;;;;;;;24.66;25.60;101753.53;4898490;29;20032;-77
2022/05/09 11:25:32;;;;;;;4.80;1.20;;;;;;;24.39;24.52;101743.56;4898953;29;20379;-77
2022/05/09 11:28:26;;;;;;;3.85;1.33;;;;;;;24.61;24.36;101752.09;4898701;29;20470;-77
2022/05/09 11:31:24;;;;;;;3.83;2.22;;;;;;;24.55;24.54;101741.72;4899018;29;20028;-77
2022/05/09 11:34:44;;;;;;;3.08;1.45;;;;;;;24.45;25.62;101737.81;4898396;29;20398;-76
2022/05/09 11:37:52;;;;;;;2.10;1.60;;;;;;;25.04;24.55;101737.84;4899208;29;20017;-76
2022/05/09 11:40:45;;;;;;;4.10;1.38;;;;;;;25.08;25.22;101739.38;4899063;29;20047;-76
2022/05/09 11:43:39;;;;;;;4.47;1.48;;;;;;;24.78;25.17;101736.72;4898468;29;20111;-76
2022/05/09 11:46:58;;;;;;;1.75;1.20;;;;;;;24.87;24.96;101735.31;4899520;29;20028;-77
2022/05/09 11:49:47;;;;;;;3.45;1.30;;;;;;;25.44;25.02;101719.19;4910994;29;20044;-76
2022/05/09 11:52:45;;;;;;;10.57;2.25;;;;;;;25.36;26.22;101726.84;4897942;29;20036;-76
2022/05/09 11:55:36;;;;;;;2.78;1.40;;;;;;;25.51;25.49;101717.00;4915848;29;20127;-77
2022/05/09 11:58:24;;;;;;;7.65;1.48;;;;;;;25.13;26.13;101718.50;4902079;29;20037;-76
2022/05/09 12:01:11;;;;;;;2.47;1.25;;;;;;;25.48;26.13;101718.03;4928816;29;20032;-76
2022/05/09 12:03:57;;;;;;;6.88;1.20;;;;;;;26.20;25.30;101715.97;4901441;29;20032;-77
2022/05/09 12:06:43;;;;;;;4.15;1.38;;;;;;;26.68;25.13;101718.09;4901704;29;20119;-75
2022/05/09 12:10:19;;;;;;;2.85;1.40;;;;;;;25.86;24.71;101703.03;4902377;29;20083;-76
2022/05/09 12:13:19;;;;;;;1.52;1.20;;;;;;;26.20;24.17;101699.03;4904805;29;20035;-75
2022/05/09 12:16:05;;;;;;;2.38;1.02;;;;;;;25.76;23.72;101706.41;4902841;29;20025;-76
2022/05/09 12:18:55;;;;;;;3.55;2.20;;;;;;;25.64;23.69;101699.16;4901301;29;20028;-76
2022/05/09 12:21:41;;;;;;;1.92;1.15;;;;;;;25.39;24.13;101694.47;4914469;29;20044;-76
2022/05/09 12:24:32;;;;;;;3.15;1.25;;;;;;;25.57;23.66;101692.44;4901684;29;20377;-76
2022/05/09 12:28:02;;;;;;;5.60;2.72;;;;;;;25.10;23.27;101691.84;4901823;29;20032;-75
2022/05/09 12:30:56;;;;;;;2.80;1.30;;;;;;;25.02;24.15;101678.94;4895776;29;20040;-76
2022/05/09 12:33:45;;;;;;;2.70;1.10;;;;;;;25.40;24.23;101679.25;4926850;29;20087;-76
2022/05/09 12:36:35;;;;;;;2.95;1.30;;;;;;;25.18;24.89;101677.00;4901914;29;20033;-76
2022/05/09 12:39:39;;;;;;;3.45;1.38;;;;;;;25.15;24.95;101673.69;4914283;29;20112;-76
2022/05/09 12:42:46;;;;;;;2.97;1.48;;;;;;;25.31;24.75;101674.47;4914607;29;20036;-76
2022/05/09 12:45:33;;;;;;;4.68;1.42;;;;;;;25.51;24.97;101668.69;4900605;29;20112;-77
2022/05/09 12:48:19;;;;;;;4.15;1.90;;;;;;;25.41;25.03;101663.03;4914577;29;20036;-76
2022/05/09 12:51:11;;;;;;;17.90;12.88;;;;;;;25.56;24.79;101666.56;4901084;29;20028;-76
2022/05/09 12:53:58;;;;;;;2.97;1.30;;;;;;;25.42;24.73;101656.72;4902476;29;20044;-75
2022/05/09 12:57:04;;;;;;;19.48;13.27;;;;;;;25.34;25.84;101660.84;4900983;29;20040;-75
2022/05/09 12:59:52;;;;;;;3.28;1.40;;;;;;;25.44;25.37;101652.09;4901704;29;20025;-74
2022/05/09 13:02:38;;;;;;;4.53;1.40;;;;;;;25.29;26.30;101646.84;4900521;29;20040;-76
2022/05/09 13:05:50;;;;;;;2.80;1.70;;;;;;;25.48;25.66;101644.72;4901030;29;20033;-75
2022/05/09 13:08:38;;;;;;;3.08;1.80;;;;;;;25.75;25.88;101637.53;4901316;29;20032;-75
2022/05/09 13:11:28;;;;;;;6.63;2.10;;;;;;;25.66;26.62;101632.78;4900952;29;20127;-76
2022/05/09 13:14:30;;;;;;;3.15;1.55;;;;;;;26.08;25.66;101632.69;4900634;29;20075;-76
2022/05/09 13:17:21;;;;;;;2.47;1.50;;;;;;;26.06;24.78;101631.91;4900827;29;20127;-76